createdAt,value
2023-05-14T00:00:05.398Z,55.60
2023-05-14T00:02:33.349Z,56.90
2023-05-14T00:05:01.284Z,56.80
2023-05-14T00:07:31.159Z,57.00
2023-05-14T00:09:59.143Z,56.10
2023-05-14T00:12:27.327Z,56.70
2023-05-14T00:14:55.258Z,56.20
2023-05-14T00:17:23.169Z,55.30
2023-05-14T00:19:51.191Z,53.60
2023-05-14T00:22:19.051Z,54.50
2023-05-14T00:24:48.276Z,57.00
2023-05-14T00:27:16.106Z,57.60
2023-05-14T00:29:45.647Z,57.90
2023-05-14T00:32:13.574Z,59.20
2023-05-14T00:34:41.436Z,61.30
2023-05-14T00:37:09.354Z,61.60
2023-05-14T00:39:37.205Z,63.10
2023-05-14T00:42:06.879Z,65.30
2023-05-14T00:44:34.761Z,66.40
2023-05-14T00:47:02.718Z,66.50
2023-05-14T00:49:30.613Z,67.20
2023-05-14T00:51:59.143Z,68.60
2023-05-14T00:54:27.111Z,68.80
2023-05-14T00:56:55.355Z,69.10
2023-05-14T00:59:24.650Z,69.90
2023-05-14T01:01:52.621Z,70.20
2023-05-14T01:04:20.534Z,70.70
2023-05-14T01:06:55.351Z,69.50
2023-05-14T01:09:27.568Z,68.90
2023-05-14T01:11:59.800Z,69.40
2023-05-14T01:14:34.278Z,67.80
2023-05-14T01:17:03.783Z,68.00
2023-05-14T01:19:34.976Z,69.50
2023-05-14T01:22:04.286Z,69.00
2023-05-14T01:24:32.095Z,69.00
2023-05-14T01:27:02.731Z,69.60
2023-05-14T01:29:32.358Z,70.40
2023-05-14T01:32:01.579Z,71.60
2023-05-14T01:34:31.269Z,71.30
2023-05-14T01:36:59.293Z,71.00
2023-05-14T01:39:28.845Z,72.30
2023-05-14T01:41:56.755Z,72.90
2023-05-14T01:44:24.689Z,72.50
2023-05-14T01:46:52.546Z,72.10
2023-05-14T01:49:20.418Z,70.90
2023-05-14T01:51:48.266Z,70.80
2023-05-14T01:54:16.121Z,71.20
2023-05-14T01:56:45.365Z,71.90
2023-05-14T01:59:13.275Z,73.00
2023-05-14T02:01:41.335Z,72.20
2023-05-14T02:04:09.365Z,72.60
2023-05-14T02:06:37.277Z,73.40
2023-05-14T02:09:06.242Z,74.30
2023-05-14T02:11:34.087Z,76.30
2023-05-14T02:14:03.277Z,76.10
2023-05-14T02:16:31.243Z,78.20
2023-05-14T02:18:59.190Z,78.70
2023-05-14T02:21:27.019Z,79.00
2023-05-14T02:23:56.075Z,81.20
2023-05-14T02:26:23.954Z,80.40
2023-05-14T02:28:51.812Z,80.30
2023-05-14T02:31:21.173Z,81.50
2023-05-14T02:33:49.063Z,80.80
2023-05-14T02:36:16.916Z,79.40
2023-05-14T02:38:44.778Z,81.60
2023-05-14T02:41:12.705Z,82.50
2023-05-14T02:43:41.191Z,81.20
2023-05-14T02:46:09.197Z,80.50
2023-05-14T02:48:38.709Z,79.70
2023-05-14T02:51:06.585Z,79.00
2023-05-14T02:53:34.510Z,78.00
2023-05-14T02:56:02.384Z,79.00
2023-05-14T02:58:32.130Z,79.20
2023-05-14T03:01:00.017Z,78.40
2023-05-14T03:03:28.292Z,79.20
2023-05-14T03:05:57.826Z,78.20
2023-05-14T03:08:25.753Z,78.70
2023-05-14T03:10:53.635Z,79.40
2023-05-14T03:13:21.515Z,77.40
2023-05-14T03:15:49.506Z,75.80
2023-05-14T03:18:17.331Z,76.60
2023-05-14T03:20:45.302Z,75.00
2023-05-14T03:23:14.885Z,76.20
2023-05-14T03:25:42.802Z,74.30
2023-05-14T03:28:10.978Z,73.40
2023-05-14T03:30:38.965Z,72.10
2023-05-14T03:33:06.979Z,72.50
2023-05-14T03:35:34.892Z,72.70
2023-05-14T03:38:02.781Z,73.20
2023-05-14T03:40:32.153Z,74.10
2023-05-14T03:43:00.052Z,74.40
2023-05-14T03:45:28.708Z,74.70
2023-05-14T03:47:56.624Z,75.30
2023-05-14T03:50:25.598Z,75.70
2023-05-14T03:52:54.891Z,74.20
2023-05-14T03:55:22.870Z,75.20
2023-05-14T03:57:52.117Z,74.40
2023-05-14T04:00:20.199Z,75.80
2023-05-14T04:02:48.270Z,75.90
2023-05-14T04:05:16.324Z,74.20
2023-05-14T04:07:45.767Z,74.50
2023-05-14T04:10:14.113Z,75.10
2023-05-14T04:12:42.070Z,74.50
2023-05-14T04:15:12.171Z,74.80
2023-05-14T04:17:40.038Z,73.80
2023-05-14T04:20:08.688Z,74.00
2023-05-14T04:22:36.593Z,73.30
2023-05-14T04:25:04.860Z,73.30
2023-05-14T04:27:33.753Z,72.60
2023-05-14T04:30:01.682Z,69.40
2023-05-14T04:32:31.240Z,69.10
2023-05-14T04:34:59.053Z,68.50
2023-05-14T04:37:26.973Z,69.40
2023-05-14T04:39:54.804Z,69.60
2023-05-14T04:42:22.651Z,67.50
2023-05-14T04:44:50.522Z,66.20
2023-05-14T04:47:18.436Z,65.30
2023-05-14T04:49:47.707Z,67.20
2023-05-14T04:52:15.556Z,68.40
2023-05-14T04:54:43.507Z,67.10
2023-05-14T04:57:11.420Z,64.10
2023-05-14T04:59:39.239Z,65.30
2023-05-14T05:02:07.180Z,63.40
2023-05-14T05:04:35.098Z,62.20
2023-05-14T05:07:05.680Z,62.10
2023-05-14T05:09:33.589Z,65.00
2023-05-14T05:12:02.046Z,59.90
2023-05-14T05:14:29.926Z,58.90
2023-05-14T05:16:57.753Z,55.30
2023-05-14T05:19:35.658Z,56.80
2023-05-14T05:22:12.204Z,54.50
2023-05-14T05:24:40.043Z,56.50
2023-05-14T05:27:07.915Z,54.30
2023-05-14T05:29:36.211Z,54.50
2023-05-14T05:32:04.103Z,55.80
2023-05-14T05:34:32.005Z,56.00
2023-05-14T05:36:59.874Z,58.30
2023-05-14T05:39:34.581Z,56.60
2023-05-14T05:42:03.177Z,56.40
2023-05-14T05:44:31.027Z,56.60
2023-05-14T05:46:59.010Z,56.80
2023-05-14T05:49:26.987Z,59.00
2023-05-14T05:51:54.873Z,59.80
2023-05-14T05:54:24.000Z,59.60
2023-05-14T05:56:53.313Z,61.10
2023-05-14T05:59:21.203Z,60.40
2023-05-14T06:01:49.108Z,62.90
2023-05-14T06:04:17.008Z,60.60
2023-05-14T06:06:44.994Z,58.00
2023-05-14T06:09:13.258Z,57.60
2023-05-14T06:11:41.313Z,57.10
2023-05-14T06:14:10.573Z,58.60
2023-05-14T06:16:38.568Z,59.20
2023-05-14T06:19:06.562Z,59.60
2023-05-14T06:21:34.494Z,59.50
2023-05-14T06:24:02.450Z,59.10
2023-05-14T06:26:30.473Z,56.70
2023-05-14T06:28:58.550Z,55.10
2023-05-14T06:31:27.996Z,54.20
2023-05-14T06:33:55.869Z,52.40
2023-05-14T06:36:23.712Z,47.10
2023-05-14T06:38:51.602Z,46.00
2023-05-14T06:41:19.475Z,43.40
2023-05-14T06:43:47.411Z,41.00
2023-05-14T06:46:15.335Z,38.50
2023-05-14T06:48:44.615Z,40.00
2023-05-14T06:51:13.234Z,39.60
2023-05-14T06:53:41.389Z,41.00
2023-05-14T06:56:09.275Z,35.20
2023-05-14T06:58:37.216Z,34.30
2023-05-14T07:01:05.350Z,32.10
2023-05-14T07:03:33.317Z,31.90
2023-05-14T07:06:02.647Z,30.70
2023-05-14T07:08:30.510Z,29.00
2023-05-14T07:10:59.330Z,32.00
2023-05-14T07:13:28.626Z,32.00
2023-05-14T07:15:56.818Z,30.10
2023-05-14T07:18:25.082Z,28.20
2023-05-14T07:20:52.984Z,25.80
2023-05-14T07:23:22.308Z,25.40
2023-05-14T07:25:50.274Z,20.30
2023-05-14T07:28:18.185Z,24.40
2023-05-14T07:30:46.112Z,22.20
2023-05-14T07:33:14.034Z,18.60
2023-05-14T07:35:41.942Z,11.40
2023-05-14T07:38:09.852Z,19.30
2023-05-14T07:40:39.072Z,21.40
2023-05-14T07:43:06.922Z,14.80
2023-05-14T07:45:34.826Z,15.60
2023-05-14T07:48:02.779Z,12.70
2023-05-14T07:50:31.385Z,13.30
2023-05-14T07:52:59.449Z,13.60
2023-05-14T07:55:27.326Z,13.50
2023-05-14T07:57:56.602Z,10.60
2023-05-14T08:00:24.711Z,13.60
2023-05-14T08:02:52.877Z,10.70
2023-05-14T08:05:20.986Z,8.40
2023-05-14T08:07:48.963Z,10.50
2023-05-14T08:10:16.840Z,10.60
2023-05-14T08:12:44.725Z,6.00
2023-05-14T08:15:14.089Z,6.30
2023-05-14T08:17:41.993Z,7.00
2023-05-14T08:20:11.894Z,5.30
2023-05-14T08:22:39.815Z,2.70
2023-05-14T08:25:08.080Z,8.20
2023-05-14T08:27:36.161Z,7.50
2023-05-14T08:30:04.255Z,5.30
2023-05-14T08:32:33.523Z,7.60
2023-05-14T08:35:01.503Z,11.80
2023-05-14T08:37:29.378Z,9.60
2023-05-14T08:39:57.261Z,3.70
2023-05-14T08:42:25.464Z,8.70
2023-05-14T08:44:55.043Z,6.80
2023-05-14T08:47:23.177Z,3.70
2023-05-14T08:49:54.146Z,3.00
2023-05-14T08:52:23.268Z,4.60
2023-05-14T08:54:51.972Z,4.50
2023-05-14T08:57:19.907Z,5.30
2023-05-14T08:59:48.466Z,7.80
2023-05-14T09:02:17.804Z,5.70
2023-05-14T09:04:45.949Z,5.80
2023-05-14T09:07:15.906Z,9.70
2023-05-14T09:09:45.040Z,11.10
2023-05-14T09:12:13.028Z,9.00
2023-05-14T09:14:41.347Z,8.10
2023-05-14T09:17:09.319Z,12.50
2023-05-14T09:19:39.056Z,11.90
2023-05-14T09:22:09.413Z,12.80
2023-05-14T09:24:39.478Z,14.70
2023-05-14T09:27:07.643Z,14.10
2023-05-14T09:29:35.594Z,19.70
2023-05-14T09:32:05.591Z,15.00
2023-05-14T09:34:37.818Z,14.20
2023-05-14T09:37:06.410Z,13.80
2023-05-14T09:39:34.992Z,11.10
2023-05-14T09:42:04.686Z,5.50
2023-05-14T09:44:32.882Z,2.30
2023-05-14T09:47:00.825Z,1.00
2023-05-14T09:49:28.799Z,3.00
2023-05-14T09:51:57.877Z,1.00
2023-05-14T09:54:27.137Z,1.20
2023-05-14T09:56:55.823Z,1.00
2023-05-14T09:59:25.229Z,1.00
2023-05-14T10:01:54.075Z,1.00
2023-05-14T10:04:23.023Z,1.00
2023-05-14T10:06:52.196Z,1.00
2023-05-14T10:09:23.219Z,1.00
2023-05-14T10:11:53.139Z,2.10
2023-05-14T10:14:24.232Z,1.00
2023-05-14T10:16:54.196Z,5.90
2023-05-14T10:19:24.623Z,3.40
2023-05-14T10:21:54.635Z,3.10
2023-05-14T10:24:23.097Z,8.90
2023-05-14T10:26:51.000Z,14.50
2023-05-14T10:29:18.940Z,15.60
2023-05-14T10:31:50.769Z,19.20
2023-05-14T10:34:40.802Z,25.40
2023-05-14T10:37:09.413Z,31.60
2023-05-14T10:39:44.544Z,32.90
2023-05-14T10:42:12.992Z,30.70
2023-05-14T10:44:44.069Z,35.70
2023-05-14T10:47:12.462Z,36.90
2023-05-14T10:49:43.940Z,39.00
2023-05-14T10:52:12.823Z,39.50
2023-05-14T10:54:40.715Z,34.50
2023-05-14T10:57:12.131Z,35.60
2023-05-14T10:59:42.614Z,34.50
2023-05-14T11:02:19.692Z,34.10
2023-05-14T11:04:53.140Z,29.70
2023-05-14T11:07:24.150Z,24.80
2023-05-14T11:09:52.088Z,28.60
2023-05-14T11:12:20.014Z,35.40
2023-05-14T11:14:48.592Z,33.80
2023-05-14T11:17:16.774Z,32.10
2023-05-14T11:19:44.975Z,38.60
2023-05-14T11:22:14.703Z,43.80
2023-05-14T11:24:42.620Z,38.40
2023-05-14T11:27:11.498Z,45.40
2023-05-14T11:29:39.796Z,40.30
2023-05-14T11:32:07.957Z,42.30
2023-05-14T11:34:36.959Z,42.30
2023-05-14T11:37:05.696Z,49.10
2023-05-14T11:39:36.090Z,44.00
2023-05-14T11:42:04.469Z,40.30
2023-05-14T11:44:32.425Z,34.50
2023-05-14T11:47:01.316Z,43.80
2023-05-14T11:49:30.032Z,48.10
2023-05-14T11:51:58.370Z,50.10
2023-05-14T11:54:26.901Z,51.80
2023-05-14T11:56:57.559Z,52.70
2023-05-14T11:59:25.685Z,57.10
2023-05-14T12:01:53.606Z,52.40
2023-05-14T12:04:22.774Z,61.30
2023-05-14T12:06:50.860Z,54.80
2023-05-14T12:09:19.158Z,65.10
2023-05-14T12:11:47.703Z,62.80
2023-05-14T12:14:17.763Z,63.10
2023-05-14T12:16:46.171Z,66.40
2023-05-14T12:19:15.829Z,74.40
2023-05-14T12:21:44.564Z,73.70
2023-05-14T12:24:13.299Z,82.70
2023-05-14T12:26:41.562Z,86.70
2023-05-14T12:29:09.449Z,83.60
2023-05-14T12:31:38.724Z,83.50
2023-05-14T12:34:06.683Z,70.10
2023-05-14T12:36:34.802Z,66.70
2023-05-14T12:39:03.744Z,64.20
2023-05-14T12:41:31.927Z,64.00
2023-05-14T12:44:03.507Z,72.40
2023-05-14T12:46:31.832Z,74.30
2023-05-14T12:49:01.863Z,76.30
2023-05-14T12:51:30.255Z,70.60
2023-05-14T12:53:58.244Z,70.50
2023-05-14T12:56:28.334Z,72.30
2023-05-14T12:58:56.899Z,66.10
2023-05-14T13:01:25.000Z,61.40
2023-05-14T13:03:52.991Z,60.80
2023-05-14T13:06:22.406Z,60.00
2023-05-14T13:08:50.344Z,63.40
2023-05-14T13:11:18.244Z,65.00
2023-05-14T13:13:46.096Z,65.00
2023-05-14T13:16:16.886Z,65.80
2023-05-14T13:18:45.015Z,66.50
2023-05-14T13:21:12.979Z,65.30
2023-05-14T13:23:42.598Z,65.80
2023-05-14T13:26:10.712Z,66.20
2023-05-14T13:28:38.524Z,71.30
2023-05-14T13:31:07.835Z,71.80
2023-05-14T13:33:37.021Z,73.30
2023-05-14T13:36:05.401Z,77.70
2023-05-14T13:38:33.376Z,74.90
2023-05-14T13:41:03.060Z,85.30
2023-05-14T13:43:31.361Z,79.20
2023-05-14T13:45:59.378Z,75.30
2023-05-14T13:48:27.683Z,72.80
2023-05-14T13:50:55.919Z,70.90
2023-05-14T13:53:24.431Z,69.00
2023-05-14T13:55:56.454Z,63.80
2023-05-14T13:58:26.292Z,64.40
2023-05-14T14:00:54.401Z,67.70
2023-05-14T14:03:22.458Z,66.20
2023-05-14T14:05:51.558Z,72.10
2023-05-14T14:08:23.799Z,78.00
2023-05-14T14:10:54.576Z,76.50
2023-05-14T14:13:23.326Z,82.40
2023-05-14T14:15:52.772Z,72.30
2023-05-14T14:18:20.805Z,73.10
2023-05-14T14:20:48.692Z,74.70
2023-05-14T14:23:16.623Z,74.00
2023-05-14T14:25:44.762Z,71.50
2023-05-14T14:28:12.891Z,69.00
2023-05-14T14:30:41.055Z,70.60
2023-05-14T14:33:10.340Z,76.70
2023-05-14T14:35:38.537Z,75.70
2023-05-14T14:38:06.479Z,79.50
2023-05-14T14:40:34.482Z,80.00
2023-05-14T14:43:03.002Z,76.70
2023-05-14T14:45:31.062Z,77.90
2023-05-14T14:48:14.351Z,82.50
2023-05-14T14:50:43.581Z,77.70
2023-05-14T14:53:11.533Z,81.00
2023-05-14T14:55:39.461Z,80.30
2023-05-14T14:58:07.348Z,81.40
2023-05-14T15:00:35.326Z,88.10
2023-05-14T15:03:03.300Z,87.00
2023-05-14T15:05:31.360Z,86.30
2023-05-14T15:08:00.610Z,84.70
2023-05-14T15:10:28.687Z,87.10
2023-05-14T15:12:57.620Z,85.90
2023-05-14T15:15:25.698Z,86.70
2023-05-14T15:17:53.681Z,85.70
2023-05-14T15:20:21.553Z,84.90
2023-05-14T15:22:52.234Z,84.00
2023-05-14T15:25:21.886Z,82.30
2023-05-14T15:27:50.093Z,84.40
2023-05-14T15:30:18.097Z,79.80
2023-05-14T15:32:46.408Z,79.20
2023-05-14T15:35:14.428Z,86.10
2023-05-14T15:37:43.088Z,81.10
2023-05-14T15:40:11.591Z,88.30
2023-05-14T15:42:41.966Z,90.10
2023-05-14T15:45:10.588Z,88.40
2023-05-14T15:47:38.692Z,84.40
2023-05-14T15:50:07.232Z,82.80
2023-05-14T15:52:35.220Z,81.90
2023-05-14T15:55:03.123Z,79.80
2023-05-14T15:57:31.662Z,78.00
2023-05-14T16:00:00.946Z,78.50
2023-05-14T16:02:30.455Z,81.30
2023-05-14T16:04:58.718Z,81.60
2023-05-14T16:07:26.549Z,86.50
2023-05-14T16:09:54.778Z,86.70
2023-05-14T16:12:22.719Z,84.80
2023-05-14T16:14:50.617Z,78.30
2023-05-14T16:17:19.856Z,78.00
2023-05-14T16:19:47.830Z,75.90
2023-05-14T16:22:15.726Z,76.00
2023-05-14T16:24:44.997Z,79.50
2023-05-14T16:27:13.416Z,85.30
2023-05-14T16:29:41.317Z,82.10
2023-05-14T16:32:09.232Z,85.80
2023-05-14T16:34:38.543Z,83.70
2023-05-14T16:37:06.444Z,79.20
2023-05-14T16:39:34.682Z,80.30
2023-05-14T16:42:02.561Z,79.30
2023-05-14T16:44:30.444Z,80.20
2023-05-14T16:46:58.325Z,80.60
2023-05-14T16:49:26.280Z,81.30
2023-05-14T16:51:55.979Z,83.90
2023-05-14T16:54:23.851Z,85.10
2023-05-14T16:56:51.901Z,85.70
2023-05-14T16:59:20.832Z,87.80
2023-05-14T17:01:49.177Z,87.90
2023-05-14T17:04:17.908Z,89.80
2023-05-14T17:06:46.931Z,89.60
2023-05-14T17:09:16.599Z,88.30
2023-05-14T17:11:45.799Z,90.30
2023-05-14T17:14:14.024Z,91.10
2023-05-14T17:16:42.352Z,91.60
2023-05-14T17:19:10.326Z,91.10
2023-05-14T17:21:38.297Z,92.90
2023-05-14T17:24:06.440Z,92.00
2023-05-14T17:26:35.917Z,91.50
2023-05-14T17:29:04.225Z,91.80
2023-05-14T17:31:32.191Z,92.90
2023-05-14T17:34:00.831Z,93.50
2023-05-14T17:36:28.895Z,95.10
2023-05-14T17:38:56.936Z,95.80
2023-05-14T17:41:24.895Z,96.90
2023-05-14T17:43:54.153Z,99.30
2023-05-14T17:46:22.316Z,98.30
2023-05-14T17:48:50.256Z,98.40
2023-05-14T17:51:18.089Z,97.60
2023-05-14T17:53:46.192Z,97.80
2023-05-14T17:56:14.168Z,97.80
2023-05-14T17:58:41.975Z,98.00
2023-05-14T18:01:11.571Z,97.70
2023-05-14T18:03:39.633Z,97.10
2023-05-14T18:06:07.635Z,98.00
2023-05-14T18:08:35.741Z,96.90
2023-05-14T18:11:03.731Z,96.00
2023-05-14T18:13:31.877Z,94.80
2023-05-14T18:16:00.707Z,96.20
2023-05-14T18:18:30.189Z,96.70
2023-05-14T18:20:58.162Z,98.50
2023-05-14T18:23:26.216Z,98.50
2023-05-14T18:25:54.160Z,98.60
2023-05-14T18:28:22.385Z,99.50
2023-05-14T18:30:50.469Z,97.80
2023-05-14T18:33:18.462Z,98.50
2023-05-14T18:35:47.758Z,98.90
2023-05-14T18:38:17.819Z,97.40
2023-05-14T18:40:46.178Z,97.90
2023-05-14T18:43:15.022Z,98.00
2023-05-14T18:45:42.910Z,99.30
2023-05-14T18:48:11.458Z,98.90
2023-05-14T18:50:39.614Z,98.90
2023-05-14T18:53:08.865Z,99.00
2023-05-14T18:55:37.139Z,97.90
2023-05-14T18:58:05.390Z,98.40
2023-05-14T19:00:35.087Z,99.50
2023-05-14T19:03:05.715Z,99.70
2023-05-14T19:05:33.679Z,99.50
2023-05-14T19:08:02.103Z,99.00
2023-05-14T19:10:31.597Z,99.90
2023-05-14T19:12:59.479Z,99.90
2023-05-14T19:15:27.361Z,99.90
2023-05-14T19:17:55.820Z,99.70
2023-05-14T19:20:23.730Z,99.90
2023-05-14T19:22:51.817Z,99.90
2023-05-14T19:25:19.755Z,99.90
2023-05-14T19:27:51.019Z,99.90
2023-05-14T19:30:20.214Z,99.80
2023-05-14T19:32:48.124Z,99.90
2023-05-14T19:35:16.468Z,99.90
2023-05-14T19:37:44.362Z,99.90
2023-05-14T19:40:12.386Z,99.90
2023-05-14T19:42:40.230Z,99.90
2023-05-14T19:45:10.284Z,99.90
2023-05-14T19:47:38.363Z,99.90
2023-05-14T19:50:08.415Z,99.90
2023-05-14T19:52:36.297Z,99.90
2023-05-14T19:55:04.228Z,99.90
2023-05-14T19:57:32.085Z,99.90
2023-05-14T19:59:59.960Z,99.90
2023-05-14T20:02:29.301Z,99.90
2023-05-14T20:04:57.939Z,99.90
2023-05-14T20:07:26.966Z,99.90
2023-05-14T20:09:54.860Z,99.90
2023-05-14T20:12:22.716Z,99.90
2023-05-14T20:14:50.787Z,99.90
2023-05-14T20:17:18.722Z,99.90
2023-05-14T20:19:47.996Z,99.90
2023-05-14T20:22:16.159Z,99.90
2023-05-14T20:24:44.493Z,99.90
2023-05-14T20:27:12.508Z,99.90
2023-05-14T20:29:40.380Z,99.90
2023-05-14T20:32:08.575Z,99.90
2023-05-14T20:34:36.464Z,99.90
2023-05-14T20:37:06.751Z,99.90
2023-05-14T20:39:34.626Z,99.90
2023-05-14T20:42:02.481Z,99.90
2023-05-14T20:44:30.355Z,99.90
2023-05-14T20:46:58.224Z,99.90
2023-05-14T20:49:26.333Z,99.90
2023-05-14T20:51:54.171Z,99.90
2023-05-14T20:54:23.382Z,99.90
2023-05-14T20:56:51.411Z,99.90
2023-05-14T20:59:19.361Z,99.90
2023-05-14T21:01:47.338Z,99.90
2023-05-14T21:04:15.370Z,99.90
2023-05-14T21:06:43.716Z,99.90
2023-05-14T21:09:12.072Z,99.90
2023-05-14T21:11:41.341Z,99.90
2023-05-14T21:14:09.189Z,99.90
2023-05-14T21:16:37.187Z,99.90
2023-05-14T21:19:05.229Z,99.90
2023-05-14T21:21:33.118Z,99.90
2023-05-14T21:24:00.984Z,99.90
2023-05-14T21:26:32.369Z,99.90
2023-05-14T21:29:01.653Z,99.90
2023-05-14T21:31:29.589Z,99.90
2023-05-14T21:33:57.487Z,99.90
2023-05-14T21:36:25.369Z,99.90
2023-05-14T21:38:53.927Z,99.90
2023-05-14T21:41:22.163Z,99.90
2023-05-14T21:43:50.086Z,99.90
2023-05-14T21:46:22.250Z,99.90
2023-05-14T21:48:50.289Z,99.90
2023-05-14T21:51:18.280Z,99.90
2023-05-14T21:53:46.271Z,99.90
2023-05-14T21:56:14.125Z,99.90
2023-05-14T21:58:42.192Z,99.90
2023-05-14T22:01:11.523Z,99.90
2023-05-14T22:03:40.941Z,99.90
2023-05-14T22:06:08.866Z,99.90
2023-05-14T22:08:36.731Z,99.90
2023-05-14T22:11:04.735Z,99.90
2023-05-14T22:13:32.744Z,99.90
2023-05-14T22:16:09.233Z,99.90
2023-05-14T22:18:42.585Z,99.90
2023-05-14T22:21:10.545Z,99.90
2023-05-14T22:23:38.454Z,99.90
2023-05-14T22:26:06.339Z,99.90
2023-05-14T22:28:34.202Z,99.90
2023-05-14T22:31:02.140Z,99.90
2023-05-14T22:33:30.062Z,99.90
2023-05-14T22:35:59.353Z,99.90
2023-05-14T22:38:27.205Z,99.90
2023-05-14T22:40:55.189Z,99.90
2023-05-14T22:43:23.045Z,99.90
2023-05-14T22:45:50.970Z,99.90
2023-05-14T22:48:18.866Z,99.90
2023-05-14T22:50:46.724Z,99.90
2023-05-14T22:53:16.219Z,99.90
2023-05-14T22:55:44.091Z,99.90
2023-05-14T22:58:11.965Z,99.90
2023-05-14T23:00:39.842Z,99.90
2023-05-14T23:03:07.769Z,99.90
2023-05-14T23:05:35.828Z,99.90
2023-05-14T23:08:03.693Z,99.90
2023-05-14T23:10:33.106Z,99.90
2023-05-14T23:13:01.468Z,99.90
2023-05-14T23:15:29.633Z,99.90
2023-05-14T23:17:57.561Z,99.90
2023-05-14T23:20:25.569Z,99.90
2023-05-14T23:22:54.122Z,99.90
2023-05-14T23:25:22.123Z,99.90
2023-05-14T23:27:51.582Z,99.90
2023-05-14T23:30:19.497Z,99.90
2023-05-14T23:32:47.424Z,99.90
2023-05-14T23:35:15.462Z,99.90
2023-05-14T23:37:47.167Z,99.90
2023-05-14T23:40:15.662Z,99.90
2023-05-14T23:42:44.530Z,99.90
2023-05-14T23:45:13.902Z,99.90
2023-05-14T23:47:42.225Z,99.90
2023-05-14T23:50:10.279Z,99.90
2023-05-14T23:52:38.123Z,99.90
2023-05-14T23:55:06.458Z,99.90
2023-05-14T23:57:34.368Z,99.90
